Monday, October 23, 2017, 12:07 PM CDT
Back to Local

KEMP, Emporia Municipal Airport

Location: Emporia, KS, United States Lat: 38.333
Local Time: 12:07 PM CDT (17:07 GMT) Lon: -96.2
Time Zone: US/Central Elev: 1207 ft

Show me the last for .
Show Decoded

2017-10-23 11:53 METAR KEMP 231653Z AUTO 34014G21KT 10SM FEW120 18/05 A3005 RMK AO2 SLP175
                 T01780050 =
2017-10-23 10:53 METAR KEMP 231553Z AUTO 34011G16KT 10SM CLR 16/04 A3004 RMK AO2 SLP173 T01610044
                 =
2017-10-23 09:53 METAR KEMP 231453Z AUTO 32013G18KT 10SM CLR 14/04 A3001 RMK AO2 SLP164 T01440044
                 53026 =
2017-10-23 08:53 METAR KEMP 231353Z AUTO 28011G19KT 7SM CLR 13/04 A2996 RMK AO2 SLP149 T01280039
                 =
2017-10-23 07:53 METAR KEMP 231253Z AUTO 26008KT 7SM CLR 11/04 A2994 RMK AO2 SLP142 T01060039 =
2017-10-23 06:53 METAR KEMP 231153Z AUTO 22008KT 10SM CLR 09/03 A2993 RMK AO2 SLP137 T00940033
                 10111 20067 56020 =
2017-10-23 05:53 METAR KEMP 231053Z AUTO 20007KT 10SM CLR 10/03 A2993 RMK AO2 SLP136 T01000033 =
2017-10-23 04:53 METAR KEMP 230953Z AUTO 19010KT 10SM CLR 09/03 A2995 RMK AO2 PRESFR SLP140
                 T00940033 =
2017-10-23 03:53 METAR KEMP 230853Z AUTO 21010KT 10SM CLR 11/04 A2999 RMK AO2 SLP155 T01060039
                 56017 =
2017-10-23 02:53 METAR KEMP 230753Z AUTO 21010KT 10SM CLR 10/04 A3002 RMK AO2 SLP162 T01000039 =
2017-10-23 01:53 METAR KEMP 230653Z AUTO 20008KT 10SM CLR 07/03 A3002 RMK AO2 SLP165 T00670033 =
2017-10-23 00:53 METAR KEMP 230553Z AUTO 19007KT 10SM CLR 07/03 A3004 RMK AO2 SLP175 T00670028
                 10150 20067 402000061 58012 =
2017-10-22 23:53 METAR KEMP 230453Z AUTO 18008KT 10SM CLR 08/03 A3006 RMK AO2 SLP179 T00780028 =
2017-10-22 22:53 METAR KEMP 230353Z AUTO 18009KT 10SM CLR 08/03 A3007 RMK AO2 SLP186 T00830028 =
2017-10-22 21:53 METAR KEMP 230253Z AUTO 18008KT 10SM CLR 09/02 A3008 RMK AO2 SLP190 T00940022
                 55004 =
2017-10-22 20:53 METAR KEMP 230153Z AUTO 18007KT 10SM CLR 09/03 A3008 RMK AO2 SLP190 T00940033 =
2017-10-22 19:53 METAR KEMP 230053Z AUTO 18007KT 10SM CLR 11/03 A3009 RMK AO2 SLP195 T01110028 =
2017-10-22 18:53 METAR KEMP 222353Z AUTO 14006KT 10SM CLR 15/01 A3009 RMK AO2 SLP193 T01500011
                 10200 20150 56005 =
2017-10-22 17:53 METAR KEMP 222253Z AUTO 00000KT 10SM CLR 19/00 A3010 RMK AO2 SLP192 T01890000 =
2017-10-22 16:53 METAR KEMP 222153Z AUTO 36005KT 10SM CLR 20/M02 A3011 RMK AO2 SLP194 T02001022 =
2017-10-22 15:53 METAR KEMP 222053Z AUTO 32005KT 10SM CLR 20/M01 A3011 RMK AO2 SLP194 T02001006
                 56019 =
2017-10-22 14:53 METAR KEMP 221953Z AUTO 34004KT 10SM CLR 19/01 A3012 RMK AO2 SLP197 T01940011 =
2017-10-22 13:53 METAR KEMP 221853Z AUTO 33010KT 10SM CLR 19/01 A3014 RMK AO2 SLP206 T01890011 $
                 =
2017-10-22 12:53 METAR KEMP 221753Z AUTO 28006G17KT 10SM CLR 18/03 A3017 RMK AO2 SLP215 T01780033
                 10183 20061 58002 $ =

Support USWX by starting your Amazon purchase here.